sensor_id;sensor_type;location;lat;lon;timestamp;P1;P2;P0
82817;PMS5003;72572;46.824;-71.222;2023-12-20T00:01:03;0;0;0
82817;PMS5003;72572;46.824;-71.222;2023-12-20T00:03:30;0.24;0.1;0.1
82817;PMS5003;72572;46.824;-71.222;2023-12-20T00:05:57;0.95;0.95;0.23
82817;PMS5003;72572;46.824;-71.222;2023-12-20T00:08:20;1;1;0
82817;PMS5003;72572;46.824;-71.222;2023-12-20T00:10:45;0.76;0.24;0
82817;PMS5003;72572;46.824;-71.222;2023-12-20T00:13:12;0.1;0.1;0
82817;PMS5003;72572;46.824;-71.222;2023-12-20T00:15:36;10.6;6.2;2
82817;PMS5003;72572;46.824;-71.222;2023-12-20T00:18:02;3.57;3.33;1.52
82817;PMS5003;72572;46.824;-71.222;2023-12-20T00:20:27;2.1;1.05;0.19
82817;PMS5003;72572;46.824;-71.222;2023-12-20T00:22:53;0.73;0.64;0.36
82817;PMS5003;72572;46.824;-71.222;2023-12-20T00:25:20;1.38;1.38;1
82817;PMS5003;72572;46.824;-71.222;2023-12-20T00:27:45;0.24;0.24;0
82817;PMS5003;72572;46.824;-71.222;2023-12-20T00:30:10;1.73;1.55;0.77
82817;PMS5003;72572;46.824;-71.222;2023-12-20T00:32:38;2.33;1.52;0.52
82817;PMS5003;72572;46.824;-71.222;2023-12-20T00:35:01;7.38;4.71;1.67
82817;PMS5003;72572;46.824;-71.222;2023-12-20T00:37:25;0.38;0;0
82817;PMS5003;72572;46.824;-71.222;2023-12-20T00:39:52;0.14;0.14;0
82817;PMS5003;72572;46.824;-71.222;2023-12-20T00:42:18;0.76;0.76;0
82817;PMS5003;72572;46.824;-71.222;2023-12-20T00:44:44;0.19;0.19;0
82817;PMS5003;72572;46.824;-71.222;2023-12-20T00:47:09;0;0;0
82817;PMS5003;72572;46.824;-71.222;2023-12-20T00:49:35;0.05;0.05;0
82817;PMS5003;72572;46.824;-71.222;2023-12-20T00:51:59;0;0;0
82817;PMS5003;72572;46.824;-71.222;2023-12-20T00:54:26;0;0;0
82817;PMS5003;72572;46.824;-71.222;2023-12-20T00:56:50;0.5;0;0
82817;PMS5003;72572;46.824;-71.222;2023-12-20T00:59:17;1.52;0;0
82817;PMS5003;72572;46.824;-71.222;2023-12-20T01:01:40;1.05;1;0
82817;PMS5003;72572;46.824;-71.222;2023-12-20T01:04:07;0;0;0
82817;PMS5003;72572;46.824;-71.222;2023-12-20T01:06:33;0.62;0.62;0
82817;PMS5003;72572;46.824;-71.222;2023-12-20T01:08:59;0.24;0;0
82817;PMS5003;72572;46.824;-71.222;2023-12-20T01:11:24;0;0;0
82817;PMS5003;72572;46.824;-71.222;2023-12-20T01:13:49;0;0;0
82817;PMS5003;72572;46.824;-71.222;2023-12-20T01:16:16;0;0;0
82817;PMS5003;72572;46.824;-71.222;2023-12-20T01:18:40;1;0;0
82817;PMS5003;72572;46.824;-71.222;2023-12-20T01:21:04;0.9;0;0
82817;PMS5003;72572;46.824;-71.222;2023-12-20T01:23:31;0;0;0
82817;PMS5003;72572;46.824;-71.222;2023-12-20T01:25:58;0;0;0
82817;PMS5003;72572;46.824;-71.222;2023-12-20T01:28:22;1;0.52;0
82817;PMS5003;72572;46.824;-71.222;2023-12-20T01:30:46;0;0;0
82817;PMS5003;72572;46.824;-71.222;2023-12-20T01:33:13;0;0;0
82817;PMS5003;72572;46.824;-71.222;2023-12-20T01:35:39;0.1;0.1;0
82817;PMS5003;72572;46.824;-71.222;2023-12-20T01:38:03;0;0;0
82817;PMS5003;72572;46.824;-71.222;2023-12-20T01:40:29;0;0;0
82817;PMS5003;72572;46.824;-71.222;2023-12-20T01:42:59;0.38;0.38;0
82817;PMS5003;72572;46.824;-71.222;2023-12-20T01:45:29;0.45;0.45;0
82817;PMS5003;72572;46.824;-71.222;2023-12-20T01:47:54;0;0;0
82817;PMS5003;72572;46.824;-71.222;2023-12-20T01:50:18;0;0;0
82817;PMS5003;72572;46.824;-71.222;2023-12-20T01:52:43;0.33;0;0
82817;PMS5003;72572;46.824;-71.222;2023-12-20T01:55:10;1;1;0
82817;PMS5003;72572;46.824;-71.222;2023-12-20T01:57:34;0;0;0
82817;PMS5003;72572;46.824;-71.222;2023-12-20T01:59:59;0.67;0.67;0.1
82817;PMS5003;72572;46.824;-71.222;2023-12-20T02:02:27;1;0;0
82817;PMS5003;72572;46.824;-71.222;2023-12-20T02:04:52;0;0;0
82817;PMS5003;72572;46.824;-71.222;2023-12-20T02:07:18;0;0;0
82817;PMS5003;72572;46.824;-71.222;2023-12-20T02:09:42;0.9;0.1;0
82817;PMS5003;72572;46.824;-71.222;2023-12-20T02:12:08;1.76;1.24;0.9
82817;PMS5003;72572;46.824;-71.222;2023-12-20T02:14:32;0.48;0;0
82817;PMS5003;72572;46.824;-71.222;2023-12-20T02:16:57;1.24;0.67;0.67
82817;PMS5003;72572;46.824;-71.222;2023-12-20T02:19:24;0.77;0.77;0.18
82817;PMS5003;72572;46.824;-71.222;2023-12-20T02:21:51;3.95;2.8;1.05
82817;PMS5003;72572;46.824;-71.222;2023-12-20T02:24:15;1.57;1.43;0
82817;PMS5003;72572;46.824;-71.222;2023-12-20T02:26:39;2.19;0.95;0
82817;PMS5003;72572;46.824;-71.222;2023-12-20T02:29:06;6.65;4.6;1.9
82817;PMS5003;72572;46.824;-71.222;2023-12-20T02:31:29;1.95;0.65;0
82817;PMS5003;72572;46.824;-71.222;2023-12-20T02:33:55;1;1;0.75
82817;PMS5003;72572;46.824;-71.222;2023-12-20T02:36:22;3.38;3.38;0.95
82817;PMS5003;72572;46.824;-71.222;2023-12-20T02:38:49;1.24;1.24;1.05
82817;PMS5003;72572;46.824;-71.222;2023-12-20T02:41:13;3.19;1.76;0.95
82817;PMS5003;72572;46.824;-71.222;2023-12-20T02:43:38;0.75;0.5;0
82817;PMS5003;72572;46.824;-71.222;2023-12-20T02:46:05;0;0;0
82817;PMS5003;72572;46.824;-71.222;2023-12-20T02:48:31;0.6;0;0
82817;PMS5003;72572;46.824;-71.222;2023-12-20T02:50:54;1;0.5;0
82817;PMS5003;72572;46.824;-71.222;2023-12-20T02:53:20;1.24;1;0
82817;PMS5003;72572;46.824;-71.222;2023-12-20T02:55:45;0;0;0
82817;PMS5003;72572;46.824;-71.222;2023-12-20T02:58:11;1.75;1;0
82817;PMS5003;72572;46.824;-71.222;2023-12-20T03:00:37;1;1;0
82817;PMS5003;72572;46.824;-71.222;2023-12-20T03:03:03;2.55;1;1
82817;PMS5003;72572;46.824;-71.222;2023-12-20T03:05:28;1.25;0.9;0
82817;PMS5003;72572;46.824;-71.222;2023-12-20T03:07:52;0.25;0.25;0
82817;PMS5003;72572;46.824;-71.222;2023-12-20T03:10:19;0;0;0
82817;PMS5003;72572;46.824;-71.222;2023-12-20T03:12:45;0.25;0;0
82817;PMS5003;72572;46.824;-71.222;2023-12-20T03:15:10;0.1;0.1;0
82817;PMS5003;72572;46.824;-71.222;2023-12-20T03:17:36;0.35;0.1;0
82817;PMS5003;72572;46.824;-71.222;2023-12-20T03:19:59;0.1;0.1;0
82817;PMS5003;72572;46.824;-71.222;2023-12-20T03:22:26;0;0;0
82817;PMS5003;72572;46.824;-71.222;2023-12-20T03:24:52;0.2;0.2;0.05
82817;PMS5003;72572;46.824;-71.222;2023-12-20T03:27:17;6.29;0;0
82817;PMS5003;72572;46.824;-71.222;2023-12-20T03:29:43;0.55;0.55;0
82817;PMS5003;72572;46.824;-71.222;2023-12-20T03:32:07;0.8;0.8;0
82817;PMS5003;72572;46.824;-71.222;2023-12-20T03:34:33;1;1;0.95
82817;PMS5003;72572;46.824;-71.222;2023-12-20T03:36:57;1.7;0.8;0.55
82817;PMS5003;72572;46.824;-71.222;2023-12-20T03:39:23;1.55;1.55;0.7
82817;PMS5003;72572;46.824;-71.222;2023-12-20T03:41:47;1.05;1.05;0
82817;PMS5003;72572;46.824;-71.222;2023-12-20T03:44:13;1.43;1.43;0
82817;PMS5003;72572;46.824;-71.222;2023-12-20T03:46:40;1.1;1.1;0.8
82817;PMS5003;72572;46.824;-71.222;2023-12-20T03:49:03;0.95;0.95;0
82817;PMS5003;72572;46.824;-71.222;2023-12-20T03:51:30;1;1;0.1
82817;PMS5003;72572;46.824;-71.222;2023-12-20T03:53:55;1;1;0.5
82817;PMS5003;72572;46.824;-71.222;2023-12-20T03:56:21;0;0;0
82817;PMS5003;72572;46.824;-71.222;2023-12-20T03:58:44;0.1;0.1;0
82817;PMS5003;72572;46.824;-71.222;2023-12-20T04:01:12;0.57;0.57;0
82817;PMS5003;72572;46.824;-71.222;2023-12-20T04:03:37;1.65;1;0
82817;PMS5003;72572;46.824;-71.222;2023-12-20T04:06:03;1;1;0.55
82817;PMS5003;72572;46.824;-71.222;2023-12-20T04:08:25;1;1;0.5
82817;PMS5003;72572;46.824;-71.222;2023-12-20T04:10:51;0.6;0.6;0
82817;PMS5003;72572;46.824;-71.222;2023-12-20T04:13:17;0.4;0.4;0.25
82817;PMS5003;72572;46.824;-71.222;2023-12-20T04:15:43;2.8;2.8;0.95
82817;PMS5003;72572;46.824;-71.222;2023-12-20T04:18:09;2.24;1.24;0.95
82817;PMS5003;72572;46.824;-71.222;2023-12-20T04:20:35;3.45;3.05;1.4
82817;PMS5003;72572;46.824;-71.222;2023-12-20T04:22:57;1.95;1.95;0
82817;PMS5003;72572;46.824;-71.222;2023-12-20T04:25:23;1.7;1.1;0.1
82817;PMS5003;72572;46.824;-71.222;2023-12-20T04:27:49;1.2;1.2;1
82817;PMS5003;72572;46.824;-71.222;2023-12-20T04:30:15;1;1;0
82817;PMS5003;72572;46.824;-71.222;2023-12-20T04:32:41;2.1;2.1;1.7
82817;PMS5003;72572;46.824;-71.222;2023-12-20T04:35:06;2.62;2.05;1.1
82817;PMS5003;72572;46.824;-71.222;2023-12-20T04:37:31;1.4;1.4;1
82817;PMS5003;72572;46.824;-71.222;2023-12-20T04:39:57;1.8;1.8;0.8
82817;PMS5003;72572;46.824;-71.222;2023-12-20T04:42:23;2.4;1.9;1
82817;PMS5003;72572;46.824;-71.222;2023-12-20T04:44:48;1.25;1.25;0.5
82817;PMS5003;72572;46.824;-71.222;2023-12-20T04:47:13;2.65;2.65;1.55
82817;PMS5003;72572;46.824;-71.222;2023-12-20T04:49:38;1.65;1.4;0.9
82817;PMS5003;72572;46.824;-71.222;2023-12-20T04:52:03;2.05;1.43;0.71
82817;PMS5003;72572;46.824;-71.222;2023-12-20T04:54:29;3.55;1;1
82817;PMS5003;72572;46.824;-71.222;2023-12-20T04:56:54;2.6;2.6;1
82817;PMS5003;72572;46.824;-71.222;2023-12-20T04:59:20;1.9;1.9;1
82817;PMS5003;72572;46.824;-71.222;2023-12-20T05:01:44;0.9;0.9;0.6
82817;PMS5003;72572;46.824;-71.222;2023-12-20T05:04:10;1.7;1;1
82817;PMS5003;72572;46.824;-71.222;2023-12-20T05:06:34;2.25;2.25;1
82817;PMS5003;72572;46.824;-71.222;2023-12-20T05:09:00;1.43;1.43;1.14
82817;PMS5003;72572;46.824;-71.222;2023-12-20T05:11:26;1;1;1
82817;PMS5003;72572;46.824;-71.222;2023-12-20T05:13:52;2;2;1.1
82817;PMS5003;72572;46.824;-71.222;2023-12-20T05:16:16;1.85;1.85;1
82817;PMS5003;72572;46.824;-71.222;2023-12-20T05:18:42;1;1;1
82817;PMS5003;72572;46.824;-71.222;2023-12-20T05:21:08;1.4;0.8;0.1
82817;PMS5003;72572;46.824;-71.222;2023-12-20T05:23:33;1;0.45;0
82817;PMS5003;72572;46.824;-71.222;2023-12-20T05:25:59;1.62;1.29;0.43
82817;PMS5003;72572;46.824;-71.222;2023-12-20T05:28:25;1.05;1.05;0.4
82817;PMS5003;72572;46.824;-71.222;2023-12-20T05:30:48;3.1;1.9;0.8
82817;PMS5003;72572;46.824;-71.222;2023-12-20T05:33:14;1.25;0.95;0.25
82817;PMS5003;72572;46.824;-71.222;2023-12-20T05:35:40;1;1;0.1
82817;PMS5003;72572;46.824;-71.222;2023-12-20T05:38:06;0.95;0.95;0.1
82817;PMS5003;72572;46.824;-71.222;2023-12-20T05:40:30;1;1;0.8
82817;PMS5003;72572;46.824;-71.222;2023-12-20T05:42:55;1.71;1.71;1.19
82817;PMS5003;72572;46.824;-71.222;2023-12-20T05:45:21;2.3;2.3;1.85
82817;PMS5003;72572;46.824;-71.222;2023-12-20T05:47:48;3.5;3.5;1.75
82817;PMS5003;72572;46.824;-71.222;2023-12-20T05:50:11;2.75;2.2;1.9
82817;PMS5003;72572;46.824;-71.222;2023-12-20T05:52:37;2.2;2.2;1
82817;PMS5003;72572;46.824;-71.222;2023-12-20T05:55:03;3.95;3.95;2.45
82817;PMS5003;72572;46.824;-71.222;2023-12-20T05:57:29;2.25;2.25;1.35
82817;PMS5003;72572;46.824;-71.222;2023-12-20T05:59:54;3.9;2.57;1.19
82817;PMS5003;72572;46.824;-71.222;2023-12-20T06:02:18;1;1;0
82817;PMS5003;72572;46.824;-71.222;2023-12-20T06:04:44;1;1;1
82817;PMS5003;72572;46.824;-71.222;2023-12-20T06:07:11;2.95;1.9;0.7
82817;PMS5003;72572;46.824;-71.222;2023-12-20T06:09:36;2.05;1.35;1
82817;PMS5003;72572;46.824;-71.222;2023-12-20T06:11:58;3.2;1.9;1
82817;PMS5003;72572;46.824;-71.222;2023-12-20T06:14:25;3.25;1.65;0.55
82817;PMS5003;72572;46.824;-71.222;2023-12-20T06:16:51;1.48;1.48;1
82817;PMS5003;72572;46.824;-71.222;2023-12-20T06:19:17;3.3;1.75;1
82817;PMS5003;72572;46.824;-71.222;2023-12-20T06:21:42;1.1;1.1;0.7
82817;PMS5003;72572;46.824;-71.222;2023-12-20T06:24:08;1.7;1.7;1.25
82817;PMS5003;72572;46.824;-71.222;2023-12-20T06:26:32;2.55;1.1;0.7
82817;PMS5003;72572;46.824;-71.222;2023-12-20T06:28:58;1.25;1.25;0.8
82817;PMS5003;72572;46.824;-71.222;2023-12-20T06:31:24;3.65;3.15;1.45
82817;PMS5003;72572;46.824;-71.222;2023-12-20T06:33:50;1;1;0.14
82817;PMS5003;72572;46.824;-71.222;2023-12-20T06:36:13;2.35;2.25;1.1
82817;PMS5003;72572;46.824;-71.222;2023-12-20T06:38:39;1;1;0.1
82817;PMS5003;72572;46.824;-71.222;2023-12-20T06:41:04;1;1;1
82817;PMS5003;72572;46.824;-71.222;2023-12-20T06:43:29;0.55;0.55;0.55
82817;PMS5003;72572;46.824;-71.222;2023-12-20T06:45:56;2.1;2.1;0.8
82817;PMS5003;72572;46.824;-71.222;2023-12-20T06:48:21;2.65;0.9;0.55
82817;PMS5003;72572;46.824;-71.222;2023-12-20T06:50:46;0.43;0.43;0.14
82817;PMS5003;72572;46.824;-71.222;2023-12-20T06:53:13;1;1;1
82817;PMS5003;72572;46.824;-71.222;2023-12-20T06:55:38;1.6;1.6;0.65
82817;PMS5003;72572;46.824;-71.222;2023-12-20T06:58:01;0.95;0.95;0.8
82817;PMS5003;72572;46.824;-71.222;2023-12-20T07:00:27;2.4;0.95;0.4
82817;PMS5003;72572;46.824;-71.222;2023-12-20T07:02:54;0.4;0.25;0.25
82817;PMS5003;72572;46.824;-71.222;2023-12-20T07:05:17;0.75;0.75;0.25
82817;PMS5003;72572;46.824;-71.222;2023-12-20T07:07:45;0.29;0.29;0
82817;PMS5003;72572;46.824;-71.222;2023-12-20T07:10:10;3;2.6;1
82817;PMS5003;72572;46.824;-71.222;2023-12-20T07:12:33;1.25;1;0.7
82817;PMS5003;72572;46.824;-71.222;2023-12-20T07:14:59;2.75;1.95;0.55
82817;PMS5003;72572;46.824;-71.222;2023-12-20T07:17:25;0.7;0.7;0.25
82817;PMS5003;72572;46.824;-71.222;2023-12-20T07:19:51;0.7;0.7;0.55
82817;PMS5003;72572;46.824;-71.222;2023-12-20T07:22:14;1.75;0.7;0.4
82817;PMS5003;72572;46.824;-71.222;2023-12-20T07:24:40;1.81;1.81;1
82817;PMS5003;72572;46.824;-71.222;2023-12-20T07:27:06;1;1;0.1
82817;PMS5003;72572;46.824;-71.222;2023-12-20T07:29:32;2.7;1;0.05
82817;PMS5003;72572;46.824;-71.222;2023-12-20T07:31:58;1.3;1.3;0.9
82817;PMS5003;72572;46.824;-71.222;2023-12-20T07:34:24;1;1;0.75
82817;PMS5003;72572;46.824;-71.222;2023-12-20T07:36:49;1;1;0.55
82817;PMS5003;72572;46.824;-71.222;2023-12-20T07:39:12;1;1;0.9
82817;PMS5003;72572;46.824;-71.222;2023-12-20T07:41:38;2.43;1.86;1
82817;PMS5003;72572;46.824;-71.222;2023-12-20T07:44:06;1.75;1;0.8
82817;PMS5003;72572;46.824;-71.222;2023-12-20T07:46:29;2.25;2.25;1
82817;PMS5003;72572;46.824;-71.222;2023-12-20T07:48:54;1.1;1;1
82817;PMS5003;72572;46.824;-71.222;2023-12-20T07:51:21;0.55;0.55;0
82817;PMS5003;72572;46.824;-71.222;2023-12-20T07:53:45;0.9;0.9;0.9
82817;PMS5003;72572;46.824;-71.222;2023-12-20T07:56:14;3;1.5;0.9
82817;PMS5003;72572;46.824;-71.222;2023-12-20T07:58:36;0.81;0.81;0.71
82817;PMS5003;72572;46.824;-71.222;2023-12-20T08:01:03;1.95;1.95;0.75
82817;PMS5003;72572;46.824;-71.222;2023-12-20T08:03:28;1.1;1.1;0
82817;PMS5003;72572;46.824;-71.222;2023-12-20T08:05:54;1.1;1.1;0.6
82817;PMS5003;72572;46.824;-71.222;2023-12-20T08:08:17;2.05;1.6;0.8
82817;PMS5003;72572;46.824;-71.222;2023-12-20T08:10:43;1.7;1.7;1
82817;PMS5003;72572;46.824;-71.222;2023-12-20T08:13:09;1;1;0.3
82817;PMS5003;72572;46.824;-71.222;2023-12-20T08:15:35;1.29;1.29;1.14
82817;PMS5003;72572;46.824;-71.222;2023-12-20T08:17:59;0.8;0.8;0.4
82817;PMS5003;72572;46.824;-71.222;2023-12-20T08:20:25;2.25;2.25;1
82817;PMS5003;72572;46.824;-71.222;2023-12-20T08:22:49;1.25;1.25;0.55
82817;PMS5003;72572;46.824;-71.222;2023-12-20T08:25:15;1.1;1.1;1
82817;PMS5003;72572;46.824;-71.222;2023-12-20T08:27:41;1.65;1.65;1.35
82817;PMS5003;72572;46.824;-71.222;2023-12-20T08:30:08;0.55;0.55;0.55
82817;PMS5003;72572;46.824;-71.222;2023-12-20T08:32:32;1.52;0.9;0
82817;PMS5003;72572;46.824;-71.222;2023-12-20T08:34:58;1.55;1.05;0.25
82817;PMS5003;72572;46.824;-71.222;2023-12-20T08:37:23;1.6;1;0.55
82817;PMS5003;72572;46.824;-71.222;2023-12-20T08:39:49;1;1;0
82817;PMS5003;72572;46.824;-71.222;2023-12-20T08:42:15;2.6;1.9;1
82817;PMS5003;72572;46.824;-71.222;2023-12-20T08:44:38;0.45;0.45;0
82817;PMS5003;72572;46.824;-71.222;2023-12-20T08:47:15;1;1;0.71
82817;PMS5003;72572;46.824;-71.222;2023-12-20T08:49:41;1;1;0.1
82817;PMS5003;72572;46.824;-71.222;2023-12-20T08:52:06;1;1;0.55
82817;PMS5003;72572;46.824;-71.222;2023-12-20T08:54:31;1;0.35;0.1
82817;PMS5003;72572;46.824;-71.222;2023-12-20T08:56:56;1.1;1;0.4
82817;PMS5003;72572;46.824;-71.222;2023-12-20T08:59:22;0.65;0.65;0
82817;PMS5003;72572;46.824;-71.222;2023-12-20T09:18:31;2.7;2.7;1.9
82817;PMS5003;72572;46.824;-71.222;2023-12-20T09:18:49;2.29;1.95;0.57
82817;PMS5003;72572;46.824;-71.222;2023-12-20T09:19:12;0.48;0.14;0
82817;PMS5003;72572;46.824;-71.222;2023-12-20T09:19:33;2.1;2.1;1
82817;PMS5003;72572;46.824;-71.222;2023-12-20T09:19:49;0.95;0.95;0.71
82817;PMS5003;72572;46.824;-71.222;2023-12-20T09:20:04;1;1;0.48
82817;PMS5003;72572;46.824;-71.222;2023-12-20T09:20:28;1.19;1.19;1
82817;PMS5003;72572;46.824;-71.222;2023-12-20T09:21:05;1.76;0.57;0.1
82817;PMS5003;72572;46.824;-71.222;2023-12-20T09:23:31;0.9;0.9;0.33
82817;PMS5003;72572;46.824;-71.222;2023-12-20T09:25:55;1.05;0.95;0.25
82817;PMS5003;72572;46.824;-71.222;2023-12-20T09:28:21;1;1;1
82817;PMS5003;72572;46.824;-71.222;2023-12-20T09:30:47;1.45;1.25;0.9
82817;PMS5003;72572;46.824;-71.222;2023-12-20T09:33:13;2.2;1.4;1
82817;PMS5003;72572;46.824;-71.222;2023-12-20T09:35:37;0.8;0.8;0
82817;PMS5003;72572;46.824;-71.222;2023-12-20T09:38:02;1;1;0.43
82817;PMS5003;72572;46.824;-71.222;2023-12-20T09:40:28;2.45;2.15;0.75
82817;PMS5003;72572;46.824;-71.222;2023-12-20T09:42:56;2.05;2.05;1
82817;PMS5003;72572;46.824;-71.222;2023-12-20T09:45:19;1;1;0.25
82817;PMS5003;72572;46.824;-71.222;2023-12-20T09:47:43;2.65;2.65;0.95
82817;PMS5003;72572;46.824;-71.222;2023-12-20T09:50:11;1.25;1.25;1
82817;PMS5003;72572;46.824;-71.222;2023-12-20T09:52:36;1;1;0.25
82817;PMS5003;72572;46.824;-71.222;2023-12-20T09:55:03;1;1;1
82817;PMS5003;72572;46.824;-71.222;2023-12-20T09:57:26;1.6;1;0.95
82817;PMS5003;72572;46.824;-71.222;2023-12-20T09:59:52;2.8;1.95;1
82817;PMS5003;72572;46.824;-71.222;2023-12-20T10:02:17;1;1;0.9
82817;PMS5003;72572;46.824;-71.222;2023-12-20T10:04:41;1.7;1.15;0.4
82817;PMS5003;72572;46.824;-71.222;2023-12-20T10:07:08;1.9;1.9;0.95
82817;PMS5003;72572;46.824;-71.222;2023-12-20T10:09:33;3.95;3.8;2.25
82817;PMS5003;72572;46.824;-71.222;2023-12-20T10:12:00;2.71;2.71;1.9
82817;PMS5003;72572;46.824;-71.222;2023-12-20T10:14:24;1.1;1.1;0.5
82817;PMS5003;72572;46.824;-71.222;2023-12-20T10:16:48;1.45;1.45;1.1
82817;PMS5003;72572;46.824;-71.222;2023-12-20T10:19:16;2.45;2.45;1.1
82817;PMS5003;72572;46.824;-71.222;2023-12-20T10:21:39;3.4;2.35;1.1
82817;PMS5003;72572;46.824;-71.222;2023-12-20T10:24:06;2.9;2.9;1.1
82817;PMS5003;72572;46.824;-71.222;2023-12-20T10:26:29;1.9;1.9;1.4
82817;PMS5003;72572;46.824;-71.222;2023-12-20T10:28:59;2.33;2.33;1
82817;PMS5003;72572;46.824;-71.222;2023-12-20T10:31:26;3.5;3.1;1.5
82817;PMS5003;72572;46.824;-71.222;2023-12-20T10:33:47;3.5;3.5;2.45
82817;PMS5003;72572;46.824;-71.222;2023-12-20T10:36:12;2.4;2.4;1.25
82817;PMS5003;72572;46.824;-71.222;2023-12-20T10:38:36;1;1;1
82817;PMS5003;72572;46.824;-71.222;2023-12-20T10:41:01;1.1;1.1;0.95
82817;PMS5003;72572;46.824;-71.222;2023-12-20T10:43:29;2.7;1.55;1
82817;PMS5003;72572;46.824;-71.222;2023-12-20T10:45:54;2.52;2.52;1
82817;PMS5003;72572;46.824;-71.222;2023-12-20T10:48:17;2.6;2.6;1
82817;PMS5003;72572;46.824;-71.222;2023-12-20T10:50:45;4;1.8;1
82817;PMS5003;72572;46.824;-71.222;2023-12-20T10:53:08;1.8;1.8;1
82817;PMS5003;72572;46.824;-71.222;2023-12-20T10:55:35;4.05;2.35;1
82817;PMS5003;72572;46.824;-71.222;2023-12-20T10:58:00;1.85;1.85;1
82817;PMS5003;72572;46.824;-71.222;2023-12-20T11:00:24;2.25;2.25;0.8
82817;PMS5003;72572;46.824;-71.222;2023-12-20T11:02:50;2.29;1.29;0.81
82817;PMS5003;72572;46.824;-71.222;2023-12-20T11:05:24;2.7;2.7;1
82817;PMS5003;72572;46.824;-71.222;2023-12-20T11:07:43;8.79;4.26;1.42
82817;PMS5003;72572;46.824;-71.222;2023-12-20T11:10:10;2.35;2.2;1
82817;PMS5003;72572;46.824;-71.222;2023-12-20T11:12:33;3.7;3.25;1
82817;PMS5003;72572;46.824;-71.222;2023-12-20T11:14:57;3.65;3.5;1.95
82817;PMS5003;72572;46.824;-71.222;2023-12-20T11:17:22;2.45;2.45;1.4
82817;PMS5003;72572;46.824;-71.222;2023-12-20T11:20:04;3.05;3.05;2.43
82817;PMS5003;72572;46.824;-71.222;2023-12-20T11:22:14;2.2;1.1;1
82817;PMS5003;72572;46.824;-71.222;2023-12-20T11:24:40;2.95;2.95;1
82817;PMS5003;72572;46.824;-71.222;2023-12-20T11:27:05;4.1;3.9;1.65
82817;PMS5003;72572;46.824;-71.222;2023-12-20T11:29:32;3.2;2.35;1
82817;PMS5003;72572;46.824;-71.222;2023-12-20T11:31:54;5.5;4.5;1
82817;PMS5003;72572;46.824;-71.222;2023-12-20T11:34:21;4.1;4;1.6
82817;PMS5003;72572;46.824;-71.222;2023-12-20T11:36:46;4.38;3.95;1.29
82817;PMS5003;72572;46.824;-71.222;2023-12-20T11:39:14;4;4;1.4
82817;PMS5003;72572;46.824;-71.222;2023-12-20T11:41:36;1.5;1.5;1.1
82817;PMS5003;72572;46.824;-71.222;2023-12-20T11:44:04;3.35;3.35;1.25
82817;PMS5003;72572;46.824;-71.222;2023-12-20T11:46:26;3.55;2.65;1
82817;PMS5003;72572;46.824;-71.222;2023-12-20T11:48:51;3.7;1.9;1
82817;PMS5003;72572;46.824;-71.222;2023-12-20T11:51:16;3.6;2.4;2.05
82817;PMS5003;72572;46.824;-71.222;2023-12-20T11:53:43;4.1;3.95;2.52
82817;PMS5003;72572;46.824;-71.222;2023-12-20T11:56:10;2.05;2.05;1
82817;PMS5003;72572;46.824;-71.222;2023-12-20T11:58:35;3.15;3.15;1.9
82817;PMS5003;72572;46.824;-71.222;2023-12-20T12:00:59;4;3.8;2.35
82817;PMS5003;72572;46.824;-71.222;2023-12-20T12:03:25;4.6;3.8;1.55
82817;PMS5003;72572;46.824;-71.222;2023-12-20T12:05:49;4.25;4.25;2.2
82817;PMS5003;72572;46.824;-71.222;2023-12-20T12:08:15;5.55;4.1;2.55
82817;PMS5003;72572;46.824;-71.222;2023-12-20T12:10:40;3.43;3.43;3
82817;PMS5003;72572;46.824;-71.222;2023-12-20T12:13:06;3.3;1.95;1
82817;PMS5003;72572;46.824;-71.222;2023-12-20T12:15:31;4;3.55;2.3
82817;PMS5003;72572;46.824;-71.222;2023-12-20T12:17:57;1.65;1.65;0.55
82817;PMS5003;72572;46.824;-71.222;2023-12-20T12:20:23;2.05;2.05;1
82817;PMS5003;72572;46.824;-71.222;2023-12-20T12:22:47;3;3;1.6
82817;PMS5003;72572;46.824;-71.222;2023-12-20T12:25:12;3.6;2.95;1.6
82817;PMS5003;72572;46.824;-71.222;2023-12-20T12:27:38;2.71;1.57;1
82817;PMS5003;72572;46.824;-71.222;2023-12-20T12:30:11;5.1;3.05;2.6
82817;PMS5003;72572;46.824;-71.222;2023-12-20T12:32:30;4;4;2.1
82817;PMS5003;72572;46.824;-71.222;2023-12-20T12:34:54;5.45;4;2.25
82817;PMS5003;72572;46.824;-71.222;2023-12-20T12:37:19;3.1;2.45;1.1
82817;PMS5003;72572;46.824;-71.222;2023-12-20T12:39:46;4.35;3.85;2.4
82817;PMS5003;72572;46.824;-71.222;2023-12-20T12:42:11;2.65;1.35;1.35
82817;PMS5003;72572;46.824;-71.222;2023-12-20T12:44:35;5.9;5;2.86
82817;PMS5003;72572;46.824;-71.222;2023-12-20T12:47:03;3.6;3.1;1.35
82817;PMS5003;72572;46.824;-71.222;2023-12-20T12:49:28;3.6;3.2;1
82817;PMS5003;72572;46.824;-71.222;2023-12-20T12:51:51;2.55;2.2;1.1
82817;PMS5003;72572;46.824;-71.222;2023-12-20T12:54:18;5.8;4;2.65
82817;PMS5003;72572;46.824;-71.222;2023-12-20T12:56:41;5.55;5.3;2.55
82817;PMS5003;72572;46.824;-71.222;2023-12-20T12:59:08;4.1;3.35;1.4
82817;PMS5003;72572;46.824;-71.222;2023-12-20T13:01:33;5.9;5.57;3
82817;PMS5003;72572;46.824;-71.222;2023-12-20T13:03:58;4.6;2.9;1.25
82817;PMS5003;72572;46.824;-71.222;2023-12-20T13:06:23;2.7;2.4;1
82817;PMS5003;72572;46.824;-71.222;2023-12-20T13:08:50;2.3;2.3;1
82817;PMS5003;72572;46.824;-71.222;2023-12-20T13:11:15;3.8;2.3;1.25
82817;PMS5003;72572;46.824;-71.222;2023-12-20T13:13:39;3.15;3.15;1.75
82817;PMS5003;72572;46.824;-71.222;2023-12-20T13:16:05;6.8;5.3;2.05
82817;PMS5003;72572;46.824;-71.222;2023-12-20T13:18:32;2.38;2.38;1.43
82817;PMS5003;72572;46.824;-71.222;2023-12-20T13:20:58;3.25;3.25;1.2
82817;PMS5003;72572;46.824;-71.222;2023-12-20T13:23:21;4.2;4.2;2.95
82817;PMS5003;72572;46.824;-71.222;2023-12-20T13:25:47;2.7;2.7;1.4
82817;PMS5003;72572;46.824;-71.222;2023-12-20T13:28:14;3.8;3.4;1.9
82817;PMS5003;72572;46.824;-71.222;2023-12-20T13:30:39;3.75;3.75;1.9
82817;PMS5003;72572;46.824;-71.222;2023-12-20T13:33:02;5.2;3.8;2.7
82817;PMS5003;72572;46.824;-71.222;2023-12-20T13:35:28;2.81;2.81;1.29
82817;PMS5003;72572;46.824;-71.222;2023-12-20T13:37:53;5.15;5.15;2.7
82817;PMS5003;72572;46.824;-71.222;2023-12-20T13:40:19;7.95;5.2;2.45
82817;PMS5003;72572;46.824;-71.222;2023-12-20T13:42:45;3.2;2.8;1.25
82817;PMS5003;72572;46.824;-71.222;2023-12-20T13:45:09;4.1;4;1.75
82817;PMS5003;72572;46.824;-71.222;2023-12-20T13:47:35;5.45;4;2.55
82817;PMS5003;72572;46.824;-71.222;2023-12-20T13:50:00;5.55;5.45;4
82817;PMS5003;72572;46.824;-71.222;2023-12-20T13:52:26;4.05;4.05;3.14
82817;PMS5003;72572;46.824;-71.222;2023-12-20T13:54:51;4.65;4.65;2.05
82817;PMS5003;72572;46.824;-71.222;2023-12-20T13:57:21;6.95;6;3.5
82817;PMS5003;72572;46.824;-71.222;2023-12-20T13:59:44;7.71;7.19;4
82817;PMS5003;72572;46.824;-71.222;2023-12-20T14:02:10;6.1;5.7;4.1
82817;PMS5003;72572;46.824;-71.222;2023-12-20T14:04:36;7.8;7;4
82817;PMS5003;72572;46.824;-71.222;2023-12-20T14:07:01;6.6;5.05;2.05
82817;PMS5003;72572;46.824;-71.222;2023-12-20T14:09:26;7.71;5.19;3.05
82817;PMS5003;72572;46.824;-71.222;2023-12-20T14:11:54;6.45;5.05;4
82817;PMS5003;72572;46.824;-71.222;2023-12-20T14:14:17;7.75;5.1;2.9
82817;PMS5003;72572;46.824;-71.222;2023-12-20T14:16:44;6.35;5.75;4
82817;PMS5003;72572;46.824;-71.222;2023-12-20T14:19:10;7.35;7.35;4.2
82817;PMS5003;72572;46.824;-71.222;2023-12-20T14:21:33;3.4;3.4;1.55
82817;PMS5003;72572;46.824;-71.222;2023-12-20T14:23:58;5.45;4.85;2.15
82817;PMS5003;72572;46.824;-71.222;2023-12-20T14:26:35;7.76;6;3.38
82817;PMS5003;72572;46.824;-71.222;2023-12-20T14:29:02;6.24;6.24;4
82817;PMS5003;72572;46.824;-71.222;2023-12-20T14:31:27;7.95;6.9;4.1
82817;PMS5003;72572;46.824;-71.222;2023-12-20T14:33:54;6.5;6.5;3.5